Time;durP1;ratioP1;P1;durP2;ratioP2;P2;SDS_P1;SDS_P2;PMS_P1;PMS_P2;Temp;Humidity;BMP_temperature;BMP_pressure;BME280_temperature;BME280_humidity;BME280_pressure;Samples;Min_cycle;Max_cycle;Signal;HPM_P1;HPM_P2
2022/02/21 00:00:16;;;;;;;2.72;0.70;;;;;;;5.35;100.00;98981.47;667010;29;4383;-79
2022/02/21 00:00:37;;;;;;;3.05;0.68;;;;;;;5.36;100.00;98975.41;664980;29;1058;-80
2022/02/21 00:00:58;;;;;;;3.66;0.92;;;;;;;5.34;100.00;98973.72;667328;29;777;-80
2022/02/21 00:01:19;;;;;;;3.23;0.90;;;;;;;5.37;100.00;98982.31;667499;29;891;-81
2022/02/21 00:01:39;;;;;;;2.22;0.80;;;;;;;5.37;100.00;98973.66;667065;29;1285;-81
2022/02/21 00:02:00;;;;;;;2.70;0.70;;;;;;;5.37;100.00;98969.38;664978;29;3354;-81
2022/02/21 00:02:21;;;;;;;3.13;0.65;;;;;;;5.41;100.00;98976.22;664184;29;2634;-81
2022/02/21 00:02:44;;;;;;;4.20;0.80;;;;;;;5.37;100.00;98979.72;664966;29;1578;-81
2022/02/21 00:03:06;;;;;;;3.78;0.80;;;;;;;5.39;100.00;98977.97;662754;29;1349;-82
2022/02/21 00:03:27;;;;;;;3.03;0.80;;;;;;;5.48;100.00;98981.34;660379;29;4425;-81
2022/02/21 00:03:48;;;;;;;3.42;0.73;;;;;;;5.51;100.00;98981.28;663214;29;2665;-81
2022/02/21 00:04:08;;;;;;;3.03;0.80;;;;;;;5.49;100.00;98977.88;664958;29;1696;-81
2022/02/21 00:04:29;;;;;;;3.17;0.83;;;;;;;5.46;100.00;98970.97;668601;29;1959;-81
2022/02/21 00:04:49;;;;;;;4.60;1.30;;;;;;;5.49;100.00;98983.06;662160;29;3564;-82
2022/02/21 00:05:14;;;;;;;3.88;1.10;;;;;;;5.54;100.00;98981.25;665090;29;2550;-81
2022/02/21 00:05:35;;;;;;;2.88;0.80;;;;;;;5.51;100.00;98984.75;664766;29;1946;-80
2022/02/21 00:05:56;;;;;;;2.85;0.80;;;;;;;5.42;100.00;98983.09;668626;29;1664;-81
2022/02/21 00:06:18;;;;;;;3.55;0.75;;;;;;;5.42;100.00;98984.84;657762;29;4346;-82
2022/02/21 00:06:39;;;;;;;2.92;0.82;;;;;;;5.44;100.00;98983.97;668543;29;1202;-81
2022/02/21 00:06:59;;;;;;;3.58;0.80;;;;;;;5.45;100.00;98997.78;668818;29;916;-81
2022/02/21 00:07:19;;;;;;;3.00;0.70;;;;;;;5.38;100.00;98985.75;669766;29;1081;-81
2022/02/21 00:07:40;;;;;;;3.45;0.80;;;;;;;5.39;100.00;99003.88;661523;29;3209;-81
2022/02/21 00:08:06;;;;;;;2.85;0.80;;;;;;;5.31;100.00;98989.28;663313;29;2013;-80
2022/02/21 00:08:26;;;;;;;2.83;0.90;;;;;;;5.34;100.00;99003.06;666486;29;1617;-81
2022/02/21 00:08:47;;;;;;;2.38;0.80;;;;;;;5.38;100.00;98996.13;663694;29;1186;-80
2022/02/21 00:09:07;;;;;;;2.50;0.77;;;;;;;5.34;100.00;99000.47;668286;29;1229;-81
2022/02/21 00:09:28;;;;;;;3.35;0.80;;;;;;;5.34;100.00;99010.00;667049;29;4555;-83
2022/02/21 00:09:48;;;;;;;4.85;0.93;;;;;;;5.32;100.00;98998.75;665587;29;1241;-81
2022/02/21 00:10:11;;;;;;;5.17;0.90;;;;;;;5.24;100.00;99007.47;665631;29;1176;-80
2022/02/21 00:10:31;;;;;;;3.40;0.90;;;;;;;5.21;100.00;99010.09;666720;29;1510;-80
2022/02/21 00:10:54;;;;;;;4.40;0.90;;;;;;;5.24;100.00;99002.28;664021;29;4193;-81
2022/02/21 00:11:20;;;;;;;4.80;0.90;;;;;;;5.17;100.00;99003.22;662905;29;1926;-82
2022/02/21 00:11:41;;;;;;;4.57;1.00;;;;;;;5.20;100.00;99003.19;663780;29;973;-80
2022/02/21 00:12:06;;;;;;;2.63;0.80;;;;;;;5.25;100.00;99003.19;661294;29;1298;-80
2022/02/21 00:12:29;;;;;;;3.47;0.70;;;;;;;5.26;100.00;99013.53;666451;29;4578;-81
2022/02/21 00:12:51;;;;;;;3.30;1.20;;;;;;;5.29;100.00;99038.53;667196;29;2369;-81
2022/02/21 00:13:11;;;;;;;4.53;1.10;;;;;;;5.32;100.00;99022.09;663563;29;1229;-82
2022/02/21 00:13:32;;;;;;;4.40;1.08;;;;;;;5.26;100.00;99018.69;662938;29;3874;-80
2022/02/21 00:13:57;;;;;;;2.70;0.90;;;;;;;5.27;100.00;99024.72;668031;29;1769;-81
2022/02/21 00:14:17;;;;;;;2.80;0.98;;;;;;;5.23;100.00;99034.28;662889;29;1282;-81
2022/02/21 00:14:38;;;;;;;2.60;1.10;;;;;;;5.26;100.00;99017.81;662197;29;997;-82
2022/02/21 00:15:02;;;;;;;3.85;0.93;;;;;;;5.38;100.00;99053.13;663274;29;1345;-80
2022/02/21 00:15:27;;;;;;;3.35;0.90;;;;;;;5.31;100.00;99000.50;663144;29;4383;-81
2022/02/21 00:15:48;;;;;;;6.10;1.25;;;;;;;5.33;100.00;98998.78;667481;29;834;-82
2022/02/21 00:16:13;;;;;;;3.38;1.10;;;;;;;5.29;100.00;99013.47;666230;29;3414;-81
2022/02/21 00:16:37;;;;;;;3.28;0.88;;;;;;;5.36;100.00;99009.09;665161;29;4094;-81
2022/02/21 00:16:58;;;;;;;3.80;1.10;;;;;;;5.38;100.00;99014.25;660247;29;1554;-82
2022/02/21 00:17:19;;;;;;;2.55;0.82;;;;;;;5.33;100.00;99024.69;661001;29;1256;-81
2022/02/21 00:17:39;;;;;;;2.38;0.80;;;;;;;5.34;100.00;99004.81;667106;29;1345;-80
2022/02/21 00:18:05;;;;;;;2.90;0.90;;;;;;;5.43;100.00;99009.91;666523;29;1187;-82
2022/02/21 00:18:29;;;;;;;3.50;0.85;;;;;;;5.44;100.00;99002.09;666400;29;4372;-81
2022/02/21 00:18:49;;;;;;;3.33;0.95;;;;;;;5.43;100.00;99028.88;668640;29;901;-81
2022/02/21 00:19:11;;;;;;;4.80;1.10;;;;;;;5.44;100.00;99011.59;662112;29;3310;-80
2022/02/21 00:19:31;;;;;;;3.90;0.88;;;;;;;5.42;100.00;99021.97;663359;29;3694;-80
2022/02/21 00:19:52;;;;;;;3.73;0.87;;;;;;;5.30;100.00;99019.50;664767;29;1798;-80
2022/02/21 00:20:14;;;;;;;4.40;0.90;;;;;;;5.24;100.00;98998.84;665333;29;1339;-81
2022/02/21 00:20:34;;;;;;;3.00;0.80;;;;;;;5.27;100.00;98999.69;664557;29;900;-81
2022/02/21 00:20:55;;;;;;;4.40;0.90;;;;;;;5.27;100.00;99022.13;665320;29;1515;-81
2022/02/21 00:21:15;;;;;;;3.70;0.90;;;;;;;5.19;100.00;99016.16;661259;29;4466;-81
2022/02/21 00:21:39;;;;;;;4.15;0.80;;;;;;;5.30;100.00;99029.88;665770;29;1111;-81
2022/02/21 00:22:00;;;;;;;3.15;0.85;;;;;;;5.32;100.00;99010.00;665370;29;2576;-80
2022/02/21 00:22:20;;;;;;;3.28;1.05;;;;;;;5.29;100.00;99028.19;665971;29;3495;-81
2022/02/21 00:22:41;;;;;;;4.07;1.00;;;;;;;5.27;100.00;98993.63;667432;29;1329;-81
2022/02/21 00:23:03;;;;;;;3.17;0.85;;;;;;;5.26;100.00;98997.09;667359;29;1456;-82
2022/02/21 00:23:27;;;;;;;2.40;0.90;;;;;;;5.32;100.00;98997.06;668256;29;996;-81
2022/02/21 00:23:47;;;;;;;3.33;0.90;;;;;;;5.30;100.00;99006.56;667164;29;1203;-81
2022/02/21 00:24:07;;;;;;;4.32;1.00;;;;;;;5.34;100.00;98992.69;662493;29;1250;-81
2022/02/21 00:24:28;;;;;;;4.90;1.20;;;;;;;5.38;100.00;98996.97;663851;29;4315;-80
2022/02/21 00:24:48;;;;;;;5.32;1.02;;;;;;;5.37;100.00;99004.75;662859;29;1776;-80
2022/02/21 00:25:10;;;;;;;4.00;1.00;;;;;;;5.30;100.00;98996.19;664517;29;4260;-80
2022/02/21 00:25:34;;;;;;;4.43;1.08;;;;;;;5.20;100.00;99003.19;666459;29;1415;-79
2022/02/21 00:25:54;;;;;;;3.75;1.05;;;;;;;5.22;100.00;99013.53;666550;29;1036;-79
2022/02/21 00:26:16;;;;;;;3.07;0.90;;;;;;;5.26;100.00;99003.16;667786;29;926;-80
2022/02/21 00:26:37;;;;;;;2.90;0.93;;;;;;;5.31;100.00;98991.88;667265;29;1449;-80
2022/02/21 00:26:57;;;;;;;4.33;0.93;;;;;;;5.32;100.00;98998.75;664318;29;1290;-79
2022/02/21 00:27:20;;;;;;;4.60;1.13;;;;;;;5.38;100.00;99009.09;661858;29;4395;-79
2022/02/21 00:27:41;;;;;;;5.28;1.08;;;;;;;5.32;100.00;98997.06;662543;29;3205;-80
2022/02/21 00:28:01;;;;;;;5.07;1.00;;;;;;;5.35;100.00;99007.38;662954;29;2042;-79
2022/02/21 00:28:22;;;;;;;6.37;1.60;;;;;;;5.42;100.00;99019.38;664784;29;2384;-79
2022/02/21 00:28:42;;;;;;;4.32;1.05;;;;;;;5.42;100.00;99019.38;660549;29;1250;-80
2022/02/21 00:29:03;;;;;;;3.92;0.90;;;;;;;5.42;100.00;99019.38;662008;29;862;-80
2022/02/21 00:29:26;;;;;;;4.60;1.00;;;;;;;5.42;100.00;99021.97;662187;29;1196;-80
2022/02/21 00:29:47;;;;;;;4.47;1.05;;;;;;;5.42;100.00;99027.16;660991;29;2412;-80
2022/02/21 00:30:08;;;;;;;4.65;1.00;;;;;;;5.41;100.00;99022.88;663536;29;1490;-82
2022/02/21 00:30:29;;;;;;;5.13;1.10;;;;;;;5.45;100.00;99021.97;662100;29;4630;-81
2022/02/21 00:30:49;;;;;;;4.73;1.10;;;;;;;5.43;100.00;99017.69;668506;29;4264;-80
2022/02/21 00:31:10;;;;;;;4.25;1.10;;;;;;;5.37;100.00;99041.94;666123;29;1583;-80
2022/02/21 00:31:31;;;;;;;3.95;1.00;;;;;;;5.38;100.00;99033.25;668465;29;1262;-80
2022/02/21 00:32:01;;;;;;;3.80;1.00;;;;;;;5.33;100.00;99016.03;667561;29;1275;-80
2022/02/21 00:32:24;;;;;;;4.57;1.13;;;;;;;5.27;100.00;99035.09;663568;29;1361;-81
2022/02/21 00:32:47;;;;;;;4.90;1.15;;;;;;;5.25;100.00;99029.94;662079;29;1262;-80
2022/02/21 00:33:08;;;;;;;5.07;1.23;;;;;;;5.26;100.00;99059.28;664419;29;4020;-81
2022/02/21 00:33:29;;;;;;;4.13;0.90;;;;;;;5.27;100.00;99048.06;666241;29;4990;-81
2022/02/21 00:33:49;;;;;;;4.35;1.23;;;;;;;5.39;100.00;99018.59;668065;29;4002;-80
2022/02/21 00:34:10;;;;;;;4.43;1.50;;;;;;;5.46;100.00;99012.44;666238;29;941;-81
2022/02/21 00:34:30;;;;;;;5.45;1.13;;;;;;;5.46;100.00;99004.69;662257;29;1114;-81
2022/02/21 00:34:51;;;;;;;5.15;1.00;;;;;;;5.49;100.00;99029.72;662398;29;1276;-83
2022/02/21 00:35:12;;;;;;;4.73;1.20;;;;;;;5.54;100.00;99021.00;663539;29;1299;-81
2022/02/21 00:35:35;;;;;;;4.53;1.40;;;;;;;5.49;100.00;99003.78;664873;29;1322;-81
2022/02/21 00:35:59;;;;;;;4.75;1.08;;;;;;;5.42;100.00;99008.19;665300;29;842;-81
2022/02/21 00:36:20;;;;;;;5.50;1.58;;;;;;;5.51;100.00;99017.56;656515;29;4341;-82
2022/02/21 00:36:41;;;;;;;4.38;1.50;;;;;;;5.52;100.00;99029.66;667230;29;1866;-80
2022/02/21 00:37:02;;;;;;;4.70;1.10;;;;;;;5.41;100.00;99038.44;667500;29;1246;-81
2022/02/21 00:37:23;;;;;;;5.67;1.20;;;;;;;5.42;100.00;99021.13;667497;29;889;-82
2022/02/21 00:37:44;;;;;;;4.20;1.10;;;;;;;5.42;100.00;99045.31;662510;29;1255;-80
2022/02/21 00:38:07;;;;;;;4.60;1.73;;;;;;;5.42;100.00;99053.09;659830;29;1485;-81
2022/02/21 00:38:27;;;;;;;4.73;1.80;;;;;;;5.45;100.00;99042.72;664609;29;1176;-84
2022/02/21 00:38:48;;;;;;;4.10;1.00;;;;;;;5.44;100.00;99048.75;666020;29;4028;-81
2022/02/21 00:39:08;;;;;;;3.80;1.20;;;;;;;5.39;100.00;99019.44;665116;29;4421;-82
2022/02/21 00:39:29;;;;;;;5.87;1.30;;;;;;;5.44;100.00;99019.38;662711;29;1754;-82
2022/02/21 00:39:50;;;;;;;5.20;1.02;;;;;;;5.47;100.00;99016.78;664572;29;934;-80
2022/02/21 00:40:11;;;;;;;4.75;0.90;;;;;;;5.49;100.00;99046.09;666013;29;1294;-81
2022/02/21 00:40:35;;;;;;;3.55;0.90;;;;;;;5.50;100.00;99041.78;663344;29;1373;-81
2022/02/21 00:40:57;;;;;;;3.70;1.00;;;;;;;5.52;100.00;99051.25;660162;29;1051;-82
2022/02/21 00:41:17;;;;;;;4.32;1.17;;;;;;;5.49;100.00;99047.84;658929;29;2234;-81
2022/02/21 00:41:43;;;;;;;4.82;1.30;;;;;;;5.44;100.00;99059.13;659345;29;3511;-82
2022/02/21 00:42:06;;;;;;;4.57;1.05;;;;;;;5.35;100.00;99030.69;663057;29;3424;-84
2022/02/21 00:42:27;;;;;;;4.00;1.00;;;;;;;5.34;100.00;99016.00;668443;29;4358;-82
2022/02/21 00:42:47;;;;;;;5.13;1.40;;;;;;;5.42;100.00;99055.66;667800;29;1342;-84
2022/02/21 00:43:11;;;;;;;5.50;1.20;;;;;;;5.41;100.00;99068.66;670466;29;1334;-82
2022/02/21 00:43:32;;;;;;;5.50;1.05;;;;;;;5.38;100.00;99022.88;670593;29;1076;-82
2022/02/21 00:43:53;;;;;;;6.18;1.30;;;;;;;5.33;100.00;99027.28;664102;29;1494;-81
2022/02/21 00:44:13;;;;;;;7.10;1.27;;;;;;;5.38;100.00;99050.53;662621;29;1384;-82
2022/02/21 00:44:34;;;;;;;5.50;1.30;;;;;;;5.22;100.00;99021.31;666070;29;2132;-82
2022/02/21 00:44:58;;;;;;;4.32;1.05;;;;;;;5.34;100.00;99046.25;663280;29;3588;-81
2022/02/21 00:45:19;;;;;;;4.93;1.05;;;;;;;5.38;100.00;99045.38;661233;29;4450;-82
2022/02/21 00:45:40;;;;;;;5.30;2.10;;;;;;;5.34;100.00;99036.75;664419;29;1074;-83
2022/02/21 00:46:00;;;;;;;6.45;2.30;;;;;;;5.36;100.00;99054.88;665433;29;2630;-83
2022/02/21 00:46:21;;;;;;;4.45;1.10;;;;;;;5.39;100.00;99060.03;667940;29;1195;-81
2022/02/21 00:46:44;;;;;;;4.20;1.00;;;;;;;5.37;100.00;99061.78;667031;29;1224;-82
2022/02/21 00:47:09;;;;;;;5.28;1.10;;;;;;;5.36;100.00;99047.09;664375;29;1291;-82
2022/02/21 00:47:35;;;;;;;5.65;1.15;;;;;;;5.31;100.00;99073.06;661949;29;2591;-82
2022/02/21 00:47:56;;;;;;;4.88;1.00;;;;;;;5.36;100.00;99060.94;665320;29;1478;-83
2022/02/21 00:48:23;;;;;;;2.95;0.70;;;;;;;5.35;100.00;99074.75;663806;29;4397;-82
2022/02/21 00:48:44;;;;;;;4.07;0.90;;;;;;;5.33;100.00;99060.97;663361;29;1222;-82
2022/02/21 00:49:09;;;;;;;4.70;1.02;;;;;;;5.28;100.00;99061.00;667881;29;1525;-82
2022/02/21 00:49:31;;;;;;;4.45;1.00;;;;;;;5.32;100.00;99048.00;665100;29;1418;-83
2022/02/21 00:49:53;;;;;;;4.93;1.13;;;;;;;5.27;100.00;99055.81;659222;29;1188;-82
2022/02/21 00:50:14;;;;;;;5.40;1.20;;;;;;;5.27;100.00;99046.34;660595;29;3565;-82
2022/02/21 00:50:35;;;;;;;6.22;1.20;;;;;;;5.29;100.00;99059.28;659848;29;4389;-81
2022/02/21 00:50:59;;;;;;;4.72;1.10;;;;;;;5.30;100.00;99092.06;660707;29;1152;-83
2022/02/21 00:51:20;;;;;;;5.40;1.17;;;;;;;5.23;100.00;99041.19;661650;29;4403;-82
2022/02/21 00:51:48;;;;;;;6.18;1.20;;;;;;;5.28;100.00;99073.94;665072;29;926;-81
2022/02/21 00:52:08;;;;;;;5.45;1.10;;;;;;;5.33;100.00;99040.22;667833;29;1188;-83
2022/02/21 00:52:29;;;;;;;5.47;1.20;;;;;;;5.35;100.00;99073.91;667085;29;1210;-81
2022/02/21 00:52:50;;;;;;;6.80;1.27;;;;;;;5.32;100.00;99043.69;667728;29;869;-83
2022/02/21 00:53:11;;;;;;;6.90;1.40;;;;;;;5.37;100.00;99047.09;666742;29;4653;-84
2022/02/21 00:53:32;;;;;;;5.80;1.20;;;;;;;5.34;100.00;99054.03;663522;29;1353;-82
2022/02/21 00:53:55;;;;;;;7.07;1.30;;;;;;;5.29;100.00;99067.03;663407;29;4445;-82
2022/02/21 00:54:28;;;;;;;5.03;1.10;;;;;;;5.23;100.00;99064.50;661713;29;4298;-82
2022/02/21 00:54:49;;;;;;;5.68;1.20;;;;;;;5.21;100.00;99042.94;668620;29;1351;-83
2022/02/21 00:55:11;;;;;;;6.25;1.10;;;;;;;5.21;100.00;99063.66;671650;29;1410;-82
2022/02/21 00:55:34;;;;;;;3.90;1.00;;;;;;;5.19;100.00;99042.94;670911;29;1157;-83
2022/02/21 00:55:55;;;;;;;5.55;1.20;;;;;;;5.17;100.00;99062.81;667608;29;2145;-83
2022/02/21 00:56:23;;;;;;;6.55;1.20;;;;;;;5.07;100.00;99041.31;668061;29;1266;-83
2022/02/21 00:56:44;;;;;;;4.00;0.98;;;;;;;5.16;100.00;99052.47;669065;29;1477;-82
2022/02/21 00:57:05;;;;;;;4.32;1.00;;;;;;;5.13;100.00;99036.97;668077;29;912;-83
2022/02/21 00:57:28;;;;;;;5.35;1.20;;;;;;;5.15;100.00;99042.97;657637;29;4366;-82
2022/02/21 00:57:49;;;;;;;6.70;1.23;;;;;;;5.26;100.00;99051.50;658205;30;982;-82
2022/02/21 00:58:10;;;;;;;6.55;1.17;;;;;;;5.29;100.00;99054.09;664697;29;1197;-84
2022/02/21 00:58:33;;;;;;;5.60;1.20;;;;;;;5.29;100.00;99047.16;669613;29;1387;-82
2022/02/21 00:58:53;;;;;;;6.07;1.57;;;;;;;5.25;100.00;99068.78;671517;29;3330;-83
2022/02/21 00:59:14;;;;;;;4.60;1.23;;;;;;;5.29;100.00;99069.63;670213;29;3992;-82
2022/02/21 00:59:35;;;;;;;4.82;1.40;;;;;;;5.28;100.00;99061.00;670551;29;1034;-83
2022/02/21 00:59:59;;;;;;;6.25;1.60;;;;;;;5.31;100.00;99082.56;668945;29;1447;-83
2022/02/21 01:00:23;;;;;;;5.35;1.30;;;;;;;5.29;100.00;99048.91;667807;29;4332;-83
2022/02/21 01:00:44;;;;;;;5.28;1.20;;;;;;;5.35;100.00;99045.41;661836;29;1432;-82
2022/02/21 01:01:05;;;;;;;4.47;1.10;;;;;;;5.34;100.00;99059.22;664359;29;1224;-82
2022/02/21 01:01:25;;;;;;;4.53;1.20;;;;;;;5.34;100.00;99072.19;661641;29;1298;-82
2022/02/21 01:01:48;;;;;;;5.73;1.27;;;;;;;5.32;100.00;99045.41;665806;29;1304;-84
2022/02/21 01:02:12;;;;;;;7.38;1.30;;;;;;;5.29;100.00;99031.63;664702;29;2551;-82
2022/02/21 01:02:33;;;;;;;6.35;1.50;;;;;;;5.37;100.00;99067.84;668990;29;1383;-82
2022/02/21 01:02:55;;;;;;;5.38;1.30;;;;;;;5.41;100.00;99047.91;665462;29;1416;-84
2022/02/21 01:03:16;;;;;;;4.57;1.25;;;;;;;5.47;100.00;99053.06;663177;29;4336;-83
2022/02/21 01:03:36;;;;;;;4.68;1.10;;;;;;;5.46;100.00;99052.19;661816;29;1312;-83
2022/02/21 01:03:58;;;;;;;6.63;1.30;;;;;;;5.43;100.00;99074.69;665616;29;1556;-83
2022/02/21 01:04:18;;;;;;;6.78;1.45;;;;;;;5.38;100.00;99069.53;668259;29;1270;-84
2022/02/21 01:04:39;;;;;;;4.47;1.23;;;;;;;5.42;100.00;99060.00;668820;29;1888;-83
2022/02/21 01:05:03;;;;;;;5.30;1.17;;;;;;;5.36;100.00;99063.53;667655;29;1330;-83
2022/02/21 01:05:24;;;;;;;7.18;1.50;;;;;;;5.37;100.00;99065.25;663814;29;2467;-85
2022/02/21 01:05:47;;;;;;;7.85;1.60;;;;;;;5.36;100.00;99081.66;664018;29;1244;-84
2022/02/21 01:06:08;;;;;;;6.96;1.46;;;;;;;5.35;100.00;99094.63;663867;29;969;-83
2022/02/21 01:06:34;;;;;;;5.45;1.30;;;;;;;5.32;100.00;99089.44;663852;29;4714;-83
2022/02/21 01:06:55;;;;;;;6.50;1.48;;;;;;;5.31;100.00;99062.69;665254;29;1231;-84
2022/02/21 01:07:16;;;;;;;7.10;1.50;;;;;;;5.30;100.00;99094.66;666062;29;2221;-83
2022/02/21 01:07:41;;;;;;;7.00;1.40;;;;;;;5.18;100.00;99092.16;664245;29;1604;-83
2022/02/21 01:08:02;;;;;;;5.53;1.45;;;;;;;5.17;100.00;99095.66;665480;29;1059;-83
2022/02/21 01:08:24;;;;;;;5.93;1.90;;;;;;;5.18;100.00;99110.28;667914;29;1293;-82
2022/02/21 01:08:51;;;;;;;6.30;1.42;;;;;;;5.12;100.00;99067.16;668833;29;1703;-83
2022/02/21 01:09:11;;;;;;;5.45;1.40;;;;;;;5.18;100.00;99090.44;663757;29;4551;-83
2022/02/21 01:09:35;;;;;;;6.93;1.40;;;;;;;5.20;100.00;99104.25;663981;29;1214;-83
2022/02/21 01:09:59;;;;;;;7.55;1.40;;;;;;;5.30;100.00;99125.75;662903;29;3110;-83
2022/02/21 01:10:20;;;;;;;5.68;1.10;;;;;;;5.20;100.00;99137.91;666147;29;2240;-84
2022/02/21 01:10:44;;;;;;;5.25;1.20;;;;;;;5.27;100.00;99090.38;666399;29;1327;-84
2022/02/21 01:11:07;;;;;;;4.82;1.17;;;;;;;5.32;100.00;99129.19;665038;29;886;-84
2022/02/21 01:11:33;;;;;;;5.45;1.73;;;;;;;5.30;100.00;99125.75;660842;29;1485;-83
2022/02/21 01:11:54;;;;;;;5.07;1.10;;;;;;;5.33;100.00;99125.75;663985;29;1379;-84
2022/02/21 01:12:15;;;;;;;4.30;1.05;;;;;;;5.29;100.00;99144.78;666669;29;4413;-84
2022/02/21 01:12:37;;;;;;;4.68;1.17;;;;;;;5.23;100.00;99126.66;667108;29;1374;-84
2022/02/21 01:13:06;;;;;;;5.18;1.10;;;;;;;5.22;100.00;99104.22;665534;29;2793;-84
2022/02/21 01:13:29;;;;;;;4.65;1.13;;;;;;;5.22;100.00;99106.81;668570;29;1410;-83
2022/02/21 01:13:52;;;;;;;4.40;1.08;;;;;;;5.11;100.00;99075.84;668063;29;1351;-84
2022/02/21 01:14:13;;;;;;;4.82;1.20;;;;;;;5.07;100.00;99085.34;667836;29;1441;-84
2022/02/21 01:14:36;;;;;;;4.78;1.10;;;;;;;5.07;100.00;99080.16;670639;29;961;-83
2022/02/21 01:15:01;;;;;;;4.72;1.08;;;;;;;5.06;100.00;99101.75;668916;29;1335;-83
2022/02/21 01:15:22;;;;;;;5.25;1.08;;;;;;;5.07;100.00;99080.16;665734;29;4391;-83
2022/02/21 01:15:45;;;;;;;5.78;1.10;;;;;;;5.10;100.00;99110.38;665978;29;1319;-83
2022/02/21 01:16:07;;;;;;;4.93;1.08;;;;;;;5.06;100.00;99117.28;666218;29;1538;-84
2022/02/21 01:16:31;;;;;;;5.97;1.27;;;;;;;5.08;100.00;99104.31;666963;29;1934;-83
2022/02/21 01:16:54;;;;;;;3.67;0.93;;;;;;;5.16;100.00;99104.28;669692;29;843;-84
2022/02/21 01:17:15;;;;;;;3.83;1.10;;;;;;;5.06;100.00;99083.63;666790;29;1503;-84
2022/02/21 01:17:49;;;;;;;4.57;1.10;;;;;;;5.15;100.00;99115.50;666258;29;1416;-83
2022/02/21 01:18:14;;;;;;;3.38;0.90;;;;;;;5.11;100.00;99109.50;663986;29;4364;-82
2022/02/21 01:18:35;;;;;;;4.25;1.00;;;;;;;5.08;100.00;99118.16;666792;29;2685;-84
2022/02/21 01:18:57;;;;;;;5.30;1.30;;;;;;;5.05;100.00;99092.28;668758;29;1480;-84
2022/02/21 01:19:18;;;;;;;4.25;1.00;;;;;;;5.10;100.00;99113.81;664006;29;1287;-85
2022/02/21 01:19:39;;;;;;;4.22;1.30;;;;;;;5.06;100.00;99119.88;664413;29;1415;-84
2022/02/21 01:20:03;;;;;;;3.88;1.00;;;;;;;5.01;100.00;99090.59;663443;29;1245;-83
2022/02/21 01:20:24;;;;;;;3.55;0.80;;;;;;;5.05;100.00;99096.59;661071;29;1327;-83
2022/02/21 01:20:49;;;;;;;5.00;1.08;;;;;;;5.03;100.00;99108.69;663037;29;1339;-84
2022/02/21 01:21:12;;;;;;;4.53;0.90;;;;;;;5.11;100.00;99110.34;662878;29;4433;-84
2022/02/21 01:21:36;;;;;;;5.25;0.98;;;;;;;4.99;100.00;99084.53;660478;29;2979;-83
2022/02/21 01:22:03;;;;;;;6.80;1.10;;;;;;;5.01;100.00;99094.88;667385;29;1277;-84
2022/02/21 01:22:31;;;;;;;4.28;1.08;;;;;;;5.02;100.00;99128.53;666952;29;1300;-82
2022/02/21 01:23:00;;;;;;;4.93;0.98;;;;;;;4.92;100.00;99132.06;667874;29;1292;-84
2022/02/21 01:23:26;;;;;;;6.97;1.00;;;;;;;4.98;100.00;99121.66;664826;29;1302;-84
2022/02/21 01:23:59;;;;;;;3.60;1.00;;;;;;;4.96;100.00;99118.25;664743;29;1087;-86
2022/02/21 01:24:22;;;;;;;3.60;0.90;;;;;;;4.97;100.00;99094.06;661955;29;4459;-84
2022/02/21 01:24:43;;;;;;;4.10;1.00;;;;;;;4.94;100.00;99126.03;665079;29;1991;-83
2022/02/21 01:25:14;;;;;;;4.43;0.90;;;;;;;4.88;100.00;99099.31;667149;29;1774;-84
2022/02/21 01:25:37;;;;;;;4.85;1.10;;;;;;;4.84;100.00;99115.72;664760;29;1135;-85
2022/02/21 01:26:03;;;;;;;3.17;0.90;;;;;;;4.87;100.00;99093.25;659295;30;1243;-85
2022/02/21 01:26:26;;;;;;;4.50;0.90;;;;;;;4.84;100.00;99092.44;661927;29;1165;-84
2022/02/21 01:26:47;;;;;;;5.07;1.10;;;;;;;4.85;100.00;99135.59;661418;29;1296;-84
2022/02/21 01:27:19;;;;;;;4.55;1.15;;;;;;;4.89;100.00;99098.44;660822;29;4467;-85
2022/02/21 01:27:43;;;;;;;3.63;0.90;;;;;;;4.97;100.00;99114.78;664627;29;1344;-82
2022/02/21 01:28:04;;;;;;;3.55;1.08;;;;;;;4.98;100.00;99088.00;660826;29;1382;-85
2022/02/21 01:28:27;;;;;;;4.35;1.02;;;;;;;4.91;100.00;99099.28;664357;29;1283;-84
2022/02/21 01:28:48;;;;;;;2.92;0.90;;;;;;;4.94;100.00;99127.72;669155;29;1929;-84
2022/02/21 01:29:14;;;;;;;3.78;0.90;;;;;;;4.95;100.00;99126.88;667835;29;1509;-85
2022/02/21 01:29:44;;;;;;;5.13;1.40;;;;;;;4.91;100.00;99120.84;666779;29;1285;-84
2022/02/21 01:30:10;;;;;;;4.43;1.08;;;;;;;4.96;100.00;99123.41;661286;29;2481;-84
2022/02/21 01:30:31;;;;;;;3.60;0.90;;;;;;;4.94;100.00;99130.31;651585;29;4997;-83
2022/02/21 01:30:53;;;;;;;2.88;0.80;;;;;;;4.98;100.00;99111.31;663894;29;1269;-83
2022/02/21 01:31:17;;;;;;;3.90;0.90;;;;;;;4.90;100.00;99134.69;661776;29;1012;-83
2022/02/21 01:31:40;;;;;;;4.70;1.00;;;;;;;4.98;100.00;99107.88;661075;29;1359;-83
2022/02/21 01:32:01;;;;;;;5.38;1.00;;;;;;;4.95;100.00;99108.75;665990;29;1302;-84
2022/02/21 01:32:21;;;;;;;5.53;1.00;;;;;;;4.91;100.00;99107.03;662934;29;952;-83
2022/02/21 01:32:42;;;;;;;4.00;1.00;;;;;;;4.89;100.00;99148.50;666808;29;2596;-82
2022/02/21 01:33:03;;;;;;;5.65;1.55;;;;;;;4.89;100.00;99111.38;668113;29;1476;-83
2022/02/21 01:33:25;;;;;;;7.00;1.75;;;;;;;4.91;100.00;99104.47;659821;29;4438;-83
2022/02/21 01:33:53;;;;;;;4.68;1.00;;;;;;;4.87;100.00;99126.91;668096;29;941;-83
2022/02/21 01:34:17;;;;;;;4.75;0.90;;;;;;;4.82;100.00;99120.91;664813;29;1291;-84
2022/02/21 01:34:37;;;;;;;4.45;1.00;;;;;;;4.92;100.00;99103.59;669417;29;1052;-82
2022/02/21 01:34:58;;;;;;;4.25;1.00;;;;;;;4.93;100.00;99149.34;664169;29;953;-84
2022/02/21 01:35:19;;;;;;;4.40;1.23;;;;;;;4.91;100.00;99117.41;670323;29;1351;-82
2022/02/21 01:35:40;;;;;;;6.40;1.30;;;;;;;4.96;100.00;99131.19;666309;29;3492;-81
2022/02/21 01:36:03;;;;;;;4.88;1.00;;;;;;;4.94;100.00;99120.84;665102;29;1403;-83
2022/02/21 01:36:24;;;;;;;5.25;0.90;;;;;;;4.95;100.00;99132.06;667760;29;4389;-81
2022/02/21 01:36:52;;;;;;;4.28;0.85;;;;;;;4.89;100.00;99140.72;667736;29;1401;-83
2022/02/21 01:37:23;;;;;;;5.05;0.98;;;;;;;4.77;100.00;99126.09;667004;29;1585;-84
2022/02/21 01:37:43;;;;;;;5.15;1.00;;;;;;;4.68;100.00;99138.25;661628;29;1270;-82
2022/02/21 01:38:04;;;;;;;5.50;1.10;;;;;;;4.62;100.00;99149.50;666590;29;1172;-82
2022/02/21 01:38:25;;;;;;;4.40;1.00;;;;;;;4.65;100.00;99127.91;663635;29;2439;-83
2022/02/21 01:38:49;;;;;;;4.38;1.00;;;;;;;4.72;100.00;99150.31;663500;29;1757;-82
2022/02/21 01:39:11;;;;;;;4.68;0.93;;;;;;;4.73;100.00;99164.97;662134;29;4439;-81
2022/02/21 01:39:34;;;;;;;5.30;1.10;;;;;;;4.77;100.00;99125.25;664251;29;1226;-82
2022/02/21 01:39:57;;;;;;;4.63;1.00;;;;;;;4.79;100.00;99128.72;663903;29;1354;-81
2022/02/21 01:40:40;;;;;;;4.47;1.02;;;;;;;4.85;99.42;99149.38;662239;29;1051;-82
2022/02/21 01:41:01;;;;;;;4.55;1.20;;;;;;;4.78;100.00;99139.94;662446;29;982;-82
2022/02/21 01:41:24;;;;;;;7.25;1.30;;;;;;;4.77;100.00;99144.22;669241;29;2017;-84
2022/02/21 01:41:47;;;;;;;6.07;1.02;;;;;;;4.78;99.25;99150.28;671483;29;1559;-81
2022/02/21 01:42:10;;;;;;;5.00;0.80;;;;;;;4.85;99.47;99144.19;673054;29;2863;-82
2022/02/21 01:42:33;;;;;;;6.45;1.05;;;;;;;4.84;99.61;99141.63;668918;29;4924;-83
2022/02/21 01:42:54;;;;;;;5.75;1.13;;;;;;;4.83;98.41;99126.94;668444;29;1452;-84
2022/02/21 01:43:14;;;;;;;4.95;1.10;;;;;;;4.82;99.30;99140.75;666342;29;1260;-83
2022/02/21 01:43:35;;;;;;;4.88;1.02;;;;;;;4.83;97.71;99139.91;665617;29;1233;-84
2022/02/21 01:44:11;;;;;;;6.63;1.00;;;;;;;4.83;98.58;99121.78;668561;29;3252;-83
2022/02/21 01:44:39;;;;;;;5.63;1.25;;;;;;;4.83;98.92;99122.66;665666;29;1908;-83
2022/02/21 01:44:59;;;;;;;6.43;1.00;;;;;;;4.78;98.83;99158.91;662635;29;1259;-82
2022/02/21 01:45:20;;;;;;;6.80;1.10;;;;;;;4.71;99.14;99148.59;659477;29;4692;-83
2022/02/21 01:45:48;;;;;;;6.47;1.00;;;;;;;4.71;99.13;99154.63;660047;29;932;-85
2022/02/21 01:46:09;;;;;;;4.57;1.30;;;;;;;4.71;100.00;99171.91;660421;29;973;-83
2022/02/21 01:46:32;;;;;;;5.45;1.02;;;;;;;4.69;100.00;99165.84;666552;29;1460;-84
2022/02/21 01:46:55;;;;;;;5.30;1.30;;;;;;;4.68;100.00;99153.78;667869;29;1450;-83
2022/02/21 01:47:19;;;;;;;5.75;1.00;;;;;;;4.69;97.81;99150.31;665785;29;1748;-84
2022/02/21 01:47:41;;;;;;;5.60;1.10;;;;;;;4.73;96.62;99145.13;662689;29;2450;-83
2022/02/21 01:48:02;;;;;;;4.90;1.00;;;;;;;4.77;97.58;99170.13;663120;29;948;-82
2022/02/21 01:48:23;;;;;;;5.23;1.10;;;;;;;4.82;98.14;99151.13;662105;29;4310;-82
2022/02/21 01:48:43;;;;;;;7.67;1.30;;;;;;;4.78;98.25;99147.69;662996;29;876;-83